Buckland Airport Buckland US
ICAO: PABL
IATA:
Category: Medium
Scheduled Services:

Elevation: 31 ft
TransAlt. 18000 ft.

Airport Communications:
AWOS 3:135.15
ANCHORAGE APP/DEP:119.2
CTAF:122.9
KOTZEBUE RDO:122.3

PABL Zoom In..

If you have problems with the map follow the link
https://www.worldairports.se/pages/airport.php?
ICAO=PABL

Runways:

(A) RW 11 length 3200 ft width 75 ft
---- / hdg 107

(B) RW 29 length 3200 ft width 75 ft
---- / hdg 287

Location; PABL
Day. 17 / Time. 01.56 Zulu
* Altimeter: 29.85
* Temperature: -06° c. -21.2°f.
* Wind from: 150° Speed 09 kn.
Dewpoint: -08° c.
Visibility: 5 Statute Miles.
Clouds: Overcast 1900 ft.
Conditions: Light Snow.Conditions: Mist.

PABL 170156Z AUTO 15009KT 5SM -SN BR OVC019 M06/M08 A2985 RMK AO2 SNB03 SLP111 P0000 T10611083 FZRANO


Wind From 150°
Speed 09 kn.

 
 
jpsmedia.com for Web Design worldairports.se 2018   terms of use